Iowa Park, Texas
Current Conditions -  °F | °C
As of 6:52 PM on Monday 20 Oct 2014 (Local Time) from KSPS Reporting Station
Few Clouds Few Clouds  
Wind Chill: 75°   Ceiling: Unl
Heat Index: 75°   Visibility: 10mi
Dew Point: 60°   Wind: 7mph
Humidity: 60%   Direction: 140°SE
Pressure: 29.99"   Gusts: NA
Location:  33.95°N, 98.65°W
Report Text: KSPS 202352Z 14006KT 10SM FEW070 24/16 A2999 RMK AO2 SLP147 60000 T02390156 10289 20239 56001
Loading
Personal Weather Stations






























Interactive Weather Map
Tropical Storm Tracking
New forecast layout! Learn more

10-Day Weather Forecast

Advertisements
Track Severe Weather on mobile